Time;durP1;ratioP1;P1;durP2;ratioP2;P2;SDS_P1;SDS_P2;PMS_P1;PMS_P2;Temp;Humidity;BMP_temperature;BMP_pressure;BME280_temperature;BME280_humidity;BME280_pressure;Samples;Min_cycle;Max_cycle;Signal;HPM_P1;HPM_P2
2021/07/27 00:01:41;;;;;;;3.60;0.47;;;16.10;99.90;;;;;;5050991;28;20025;-85
2021/07/27 00:04:07;;;;;;;0.32;0.32;;;16.20;99.90;;;;;;5051205;28;20056;-86
2021/07/27 00:06:33;;;;;;;0.40;0.40;;;16.00;99.90;;;;;;5051481;28;20036;-85
2021/07/27 00:08:59;;;;;;;0.43;0.43;;;16.10;99.90;;;;;;5050723;28;20481;-85
2021/07/27 00:11:25;;;;;;;0.67;0.67;;;16.00;99.90;;;;;;5049721;28;20025;-85
2021/07/27 00:13:50;;;;;;;1.80;1.43;;;15.90;99.90;;;;;;5051122;28;20021;-86
2021/07/27 00:16:16;;;;;;;1.80;1.53;;;15.70;99.90;;;;;;5049266;28;20107;-85
2021/07/27 00:18:42;;;;;;;0.30;0.30;;;15.70;99.90;;;;;;5050697;28;20116;-85
2021/07/27 00:21:08;;;;;;;1.50;0.37;;;15.60;99.90;;;;;;5050439;28;20032;-85
2021/07/27 00:23:34;;;;;;;0.30;0.23;;;15.60;99.90;;;;;;5050738;28;20052;-85
2021/07/27 00:26:10;;;;;;;0.50;0.50;;;15.60;99.90;;;;;;5050690;28;20036;-85
2021/07/27 00:28:36;;;;;;;0.20;0.20;;;15.70;99.90;;;;;;5050381;28;20025;-85
2021/07/27 00:31:02;;;;;;;1.07;0.33;;;15.70;99.90;;;;;;5050323;28;20035;-86
2021/07/27 00:33:28;;;;;;;0.40;0.20;;;15.80;99.90;;;;;;5046637;28;20048;-85
2021/07/27 00:35:54;;;;;;;0.20;0.20;;;15.80;99.90;;;;;;5030305;28;20037;-85
2021/07/27 00:38:22;;;;;;;1.80;0.67;;;15.80;99.90;;;;;;5029354;28;20612;-85
2021/07/27 00:40:48;;;;;;;0.32;0.32;;;15.80;99.90;;;;;;5030424;28;20026;-85
2021/07/27 00:43:16;;;;;;;0.25;0.25;;;15.80;99.90;;;;;;5030387;28;20029;-85
2021/07/27 00:45:42;;;;;;;0.82;0.52;;;15.80;99.90;;;;;;5037909;28;20029;-86
2021/07/27 00:48:08;;;;;;;0.20;0.20;;;15.80;99.90;;;;;;5049052;28;20044;-85
2021/07/27 00:50:35;;;;;;;0.43;0.43;;;15.80;99.90;;;;;;5050221;28;20025;-85
2021/07/27 00:53:01;;;;;;;;;;;15.80;99.90;;;;;;5050992;28;20029;-85
2021/07/27 00:55:27;;;;;;;;;;;15.80;99.90;;;;;;5050509;28;20608;-86
2021/07/27 00:57:53;;;;;;;0.82;0.73;;;15.80;99.90;;;;;;5050115;28;19939;-85
2021/07/27 01:00:20;;;;;;;0.10;0.10;;;15.80;99.90;;;;;;5049729;28;20039;-85
2021/07/27 01:02:46;;;;;;;0.43;0.43;;;15.80;99.90;;;;;;5049784;28;20028;-85
2021/07/27 01:05:12;;;;;;;0.50;0.50;;;15.80;99.90;;;;;;5049780;28;20033;-85
2021/07/27 01:07:38;;;;;;;0.45;0.45;;;15.80;99.90;;;;;;5049689;28;20687;-86
2021/07/27 01:10:05;;;;;;;0.60;0.60;;;15.80;99.90;;;;;;5035466;28;20108;-85
2021/07/27 01:12:32;;;;;;;1.27;0.95;;;15.70;99.90;;;;;;5029981;28;20037;-85
2021/07/27 01:15:02;;;;;;;0.63;0.63;;;15.60;99.90;;;;;;5030189;28;20018;-85
2021/07/27 01:17:28;;;;;;;1.83;0.75;;;15.50;99.90;;;;;;5029940;28;20037;-85
2021/07/27 01:44:44;;;;;;;0.47;0.47;;;15.20;99.90;;;;;;5046602;28;20040;-86
2021/07/27 01:47:14;;;;;;;0.93;0.73;;;15.00;99.90;;;;;;5034224;28;20036;-85
2021/07/27 01:49:41;;;;;;;0.95;0.95;;;15.10;99.90;;;;;;5031220;28;20415;-85
2021/07/27 01:52:10;;;;;;;0.20;0.20;;;15.00;99.90;;;;;;5033707;28;20591;-85
2021/07/27 01:54:44;;;;;;;0.38;0.38;;;15.10;99.90;;;;;;5047045;28;20670;-85
2021/07/27 01:57:11;;;;;;;0.50;0.50;;;15.00;99.90;;;;;;5052971;28;20052;-86
2021/07/27 01:59:38;;;;;;;0.65;0.65;;;15.10;99.90;;;;;;5052711;28;20024;-85
2021/07/27 02:02:05;;;;;;;0.40;0.40;;;15.00;99.90;;;;;;5053247;28;20029;-85
2021/07/27 02:04:30;;;;;;;;;;;15.10;99.90;;;;;;5053392;28;20107;-85
2021/07/27 02:06:56;;;;;;;0.03;0.03;;;15.10;99.90;;;;;;5053496;28;19999;-85
2021/07/27 02:09:22;;;;;;;0.43;0.43;;;15.20;99.90;;;;;;5053378;28;20159;-85
2021/07/27 02:11:53;;;;;;;0.50;0.50;;;15.20;99.90;;;;;;5053160;28;20028;-85
2021/07/27 02:14:19;;;;;;;0.15;0.15;;;15.40;99.90;;;;;;5035147;28;20493;-85
2021/07/27 02:16:44;;;;;;;0.60;0.60;;;15.40;99.90;;;;;;5031833;28;20053;-85
2021/07/27 02:19:10;;;;;;;1.00;0.63;;;15.40;99.90;;;;;;5033138;28;20080;-85
2021/07/27 02:21:36;;;;;;;14.43;0.87;;;15.30;99.90;;;;;;5033106;28;20048;-85
2021/07/27 02:24:03;;;;;;;2.23;1.40;;;15.20;99.90;;;;;;5032990;28;20045;-85
2021/07/27 02:26:29;;;;;;;2.50;1.27;;;15.30;99.90;;;;;;5033016;28;20100;-85
2021/07/27 02:28:55;;;;;;;0.50;0.40;;;15.40;99.90;;;;;;5032610;28;20164;-85
2021/07/27 02:31:36;;;;;;;0.33;0.33;;;15.20;99.90;;;;;;5033038;28;20021;-85
2021/07/27 02:34:02;;;;;;;1.08;0.98;;;15.10;99.90;;;;;;5041060;28;20757;-85
2021/07/27 02:36:28;;;;;;;1.75;1.02;;;15.20;99.90;;;;;;5052463;28;20041;-85
2021/07/27 02:38:54;;;;;;;0.60;0.60;;;15.00;99.90;;;;;;5041110;28;20033;-85
2021/07/27 02:41:25;;;;;;;0.60;0.60;;;15.00;99.90;;;;;;5032449;28;20513;-85
2021/07/27 02:43:51;;;;;;;0.60;0.60;;;15.00;99.90;;;;;;5050472;28;20036;-85
2021/07/27 02:46:17;;;;;;;0.63;0.60;;;14.90;99.90;;;;;;5052702;28;20214;-85
2021/07/27 02:48:49;;;;;;;0.37;0.37;;;14.90;99.90;;;;;;5052381;28;20025;-85
2021/07/27 02:51:15;;;;;;;0.25;0.25;;;14.80;99.90;;;;;;5052811;28;20039;-85
2021/07/27 02:53:40;;;;;;;0.40;0.40;;;14.80;99.90;;;;;;5052590;28;20370;-85
2021/07/27 02:56:06;;;;;;;0.30;0.30;;;14.80;99.90;;;;;;5051255;28;20069;-86
2021/07/27 02:58:33;;;;;;;2.40;1.00;;;14.90;99.90;;;;;;5052276;28;20032;-85
2021/07/27 03:01:04;;;;;;;0.35;0.30;;;14.90;99.90;;;;;;5046437;28;20065;-85
2021/07/27 03:03:30;;;;;;;0.77;0.77;;;14.90;99.90;;;;;;5030838;28;20108;-85
2021/07/27 03:06:00;;;;;;;0.90;0.50;;;14.80;99.90;;;;;;5032345;28;20195;-85
2021/07/27 03:08:45;;;;;;;1.13;0.95;;;14.80;99.90;;;;;;5032385;28;20025;-85
2021/07/27 03:11:11;;;;;;;2.45;0.95;;;14.70;99.90;;;;;;5032366;28;20018;-85
2021/07/27 03:13:37;;;;;;;2.22;1.70;;;14.70;99.90;;;;;;5031063;28;20107;-85
2021/07/27 03:16:03;;;;;;;0.57;0.57;;;14.90;99.90;;;;;;5032210;28;20506;-85
2021/07/27 03:18:29;;;;;;;0.53;0.53;;;14.80;99.90;;;;;;5032428;28;20378;-85
2021/07/27 03:20:54;;;;;;;0.10;0.10;;;14.70;99.90;;;;;;5032026;28;20068;-85
2021/07/27 03:23:23;;;;;;;1.13;0.53;;;14.70;99.90;;;;;;5032213;28;20029;-85
2021/07/27 03:25:49;;;;;;;2.40;0.73;;;14.70;99.90;;;;;;5032130;28;20057;-85
2021/07/27 03:28:18;;;;;;;0.70;0.70;;;14.60;99.90;;;;;;5032072;28;20497;-85
2021/07/27 03:30:44;;;;;;;0.77;0.77;;;14.60;99.90;;;;;;5032079;28;20053;-86
2021/07/27 03:33:13;;;;;;;1.38;0.40;;;14.60;99.90;;;;;;5031762;28;20116;-85
2021/07/27 03:35:39;;;;;;;0.93;0.85;;;14.70;99.90;;;;;;5031806;28;20088;-85
2021/07/27 03:38:05;;;;;;;0.73;0.73;;;14.60;99.90;;;;;;5031708;28;20037;-85
2021/07/27 03:40:33;;;;;;;1.60;0.77;;;14.60;99.90;;;;;;5032191;28;20021;-85
2021/07/27 03:42:58;;;;;;;0.68;0.50;;;14.50;99.90;;;;;;5031707;28;20021;-85
2021/07/27 03:45:24;;;;;;;0.73;0.73;;;14.50;99.90;;;;;;5030575;28;20036;-85
2021/07/27 03:47:50;;;;;;;0.30;0.30;;;14.50;99.90;;;;;;5032124;28;20040;-86
2021/07/27 03:50:16;;;;;;;0.20;0.20;;;14.50;99.90;;;;;;5031963;28;20021;-85
2021/07/27 03:52:41;;;;;;;0.20;0.20;;;14.50;99.90;;;;;;5031846;28;20025;-85
2021/07/27 03:55:08;;;;;;;4.00;1.07;;;14.50;99.90;;;;;;5030410;28;20172;-85
2021/07/27 03:57:34;;;;;;;0.32;0.32;;;14.40;99.90;;;;;;5031417;28;20049;-85
2021/07/27 04:00:00;;;;;;;0.50;0.50;;;14.40;99.90;;;;;;5031532;28;20574;-85
2021/07/27 04:02:26;;;;;;;0.57;0.50;;;14.30;99.90;;;;;;5030185;28;20272;-85
2021/07/27 04:04:52;;;;;;;0.20;0.20;;;14.30;99.90;;;;;;5031399;28;20033;-85
2021/07/27 04:07:18;;;;;;;0.88;0.52;;;14.30;99.90;;;;;;5037019;28;20040;-85
2021/07/27 04:09:43;;;;;;;1.53;0.80;;;14.20;99.90;;;;;;5051305;28;20029;-85
2021/07/27 04:12:09;;;;;;;0.77;0.33;;;14.10;99.90;;;;;;5049183;28;20436;-85
2021/07/27 04:14:35;;;;;;;1.07;1.03;;;14.10;99.90;;;;;;5031379;28;20032;-85
2021/07/27 04:17:02;;;;;;;0.40;0.40;;;14.10;99.90;;;;;;5050292;28;20112;-85
2021/07/27 04:19:28;;;;;;;0.75;0.75;;;14.20;99.90;;;;;;5050818;28;20075;-85
2021/07/27 04:21:53;;;;;;;0.70;0.70;;;14.10;99.90;;;;;;5050660;28;20040;-85
2021/07/27 04:24:19;;;;;;;0.30;0.30;;;14.10;99.90;;;;;;5050509;28;20035;-85
2021/07/27 04:26:46;;;;;;;0.57;0.50;;;14.20;99.90;;;;;;5050870;28;20064;-85
2021/07/27 04:29:14;;;;;;;0.43;0.32;;;14.10;99.90;;;;;;5050192;28;20121;-85
2021/07/27 04:31:58;;;;;;;2.00;1.00;;;14.20;99.90;;;;;;5050678;28;20680;-85
2021/07/27 04:34:24;;;;;;;0.73;0.65;;;14.30;99.90;;;;;;5048553;28;20039;-85
2021/07/27 04:36:51;;;;;;;0.87;0.87;;;14.30;99.90;;;;;;5033448;28;20022;-85
2021/07/27 04:39:17;;;;;;;0.93;0.88;;;14.30;99.90;;;;;;5048852;28;20056;-85
2021/07/27 04:41:43;;;;;;;0.33;0.33;;;14.30;99.90;;;;;;5050535;28;20492;-85
2021/07/27 04:44:08;;;;;;;0.27;0.27;;;14.30;99.90;;;;;;5050169;28;20071;-85
2021/07/27 04:46:35;;;;;;;0.40;0.40;;;14.10;99.90;;;;;;5050405;28;20029;-85
2021/07/27 04:49:01;;;;;;;;;;;14.10;99.90;;;;;;5050693;28;20104;-85
2021/07/27 04:51:28;;;;;;;0.30;0.30;;;14.20;99.90;;;;;;5050336;28;20004;-85
2021/07/27 04:53:58;;;;;;;0.50;0.50;;;14.10;99.90;;;;;;5049657;28;20024;-85
2021/07/27 04:56:25;;;;;;;0.35;0.35;;;14.10;99.90;;;;;;5048399;28;20480;-85
2021/07/27 04:58:51;;;;;;;0.95;0.90;;;14.10;99.90;;;;;;5048900;28;20075;-85
2021/07/27 05:01:17;;;;;;;0.20;0.20;;;14.20;99.90;;;;;;5050281;28;20029;-85
2021/07/27 05:03:44;;;;;;;1.63;0.90;;;14.20;99.90;;;;;;5049983;28;20275;-85
2021/07/27 05:06:09;;;;;;;0.45;0.45;;;14.10;99.90;;;;;;5050399;28;20264;-85
2021/07/27 05:08:35;;;;;;;2.20;0.50;;;14.40;99.90;;;;;;5046866;28;20056;-85
2021/07/27 05:11:02;;;;;;;1.20;0.57;;;14.40;99.90;;;;;;5030115;28;20490;-85
2021/07/27 05:13:28;;;;;;;11.80;1.65;;;14.40;99.90;;;;;;5030017;28;20029;-85
2021/07/27 05:15:54;;;;;;;0.83;0.80;;;14.40;99.90;;;;;;5030435;28;20108;-85
2021/07/27 05:18:20;;;;;;;0.50;0.50;;;15.30;99.90;;;;;;5047010;28;20025;-85
2021/07/27 05:20:46;;;;;;;0.77;0.30;;;16.80;99.90;;;;;;5050328;28;20029;-85
2021/07/27 05:23:12;;;;;;;0.30;0.30;;;17.80;99.90;;;;;;5045156;28;20033;-85
2021/07/27 05:25:39;;;;;;;1.37;1.13;;;18.20;99.90;;;;;;5028758;28;20060;-85
2021/07/27 05:28:08;;;;;;;0.45;0.45;;;18.00;99.90;;;;;;5030070;28;20084;-85
2021/07/27 05:30:34;;;;;;;1.50;0.60;;;17.10;99.90;;;;;;5028615;28;20026;-85
2021/07/27 05:33:01;;;;;;;0.10;0.10;;;16.30;99.90;;;;;;5030088;28;20071;-85
2021/07/27 05:35:27;;;;;;;0.73;0.47;;;16.20;99.90;;;;;;5049730;28;20116;-86
2021/07/27 05:37:53;;;;;;;0.30;0.30;;;15.70;99.90;;;;;;5048682;28;20625;-85
2021/07/27 05:40:19;;;;;;;0.63;0.57;;;15.60;99.90;;;;;;5050069;28;20078;-85
2021/07/27 05:42:44;;;;;;;1.10;0.83;;;15.90;99.90;;;;;;5050165;28;20040;-85
2021/07/27 05:45:10;;;;;;;0.10;0.10;;;15.60;99.90;;;;;;5049982;28;20099;-85
2021/07/27 05:47:36;;;;;;;0.27;0.27;;;17.90;99.90;;;;;;5048623;28;20069;-85
2021/07/27 05:50:03;;;;;;;0.30;0.20;;;19.30;99.90;;;;;;5050526;28;20029;-85
2021/07/27 05:52:29;;;;;;;1.10;0.82;;;20.00;99.90;;;;;;5049947;28;20082;-85
2021/07/27 05:54:55;;;;;;;0.20;0.20;;;20.90;99.90;;;;;;5050385;28;20473;-85
2021/07/27 05:57:21;;;;;;;0.57;0.50;;;21.60;99.90;;;;;;5048454;28;20048;-85
2021/07/27 05:59:46;;;;;;;0.87;0.40;;;22.10;99.90;;;;;;5050057;28;20100;-85
2021/07/27 06:02:12;;;;;;;0.10;0.10;;;21.90;99.90;;;;;;5030212;28;20022;-86
2021/07/27 06:04:38;;;;;;;0.30;0.30;;;21.90;99.90;;;;;;5028771;28;20041;-86
2021/07/27 06:07:04;;;;;;;1.27;0.57;;;22.20;99.90;;;;;;5029017;28;20024;-86
2021/07/27 06:09:30;;;;;;;0.22;0.22;;;22.70;99.90;;;;;;5030337;28;20026;-86
2021/07/27 06:11:56;;;;;;;0.30;0.30;;;22.60;99.90;;;;;;5030402;28;20532;-86
2021/07/27 06:14:22;;;;;;;0.33;0.33;;;23.70;97.30;;;;;;5030231;28;20053;-85
2021/07/27 06:16:47;;;;;;;0.47;0.47;;;25.50;93.30;;;;;;5028822;28;20276;-86
2021/07/27 06:19:13;;;;;;;0.25;0.25;;;25.30;92.90;;;;;;5028895;28;20272;-86
2021/07/27 06:21:40;;;;;;;0.45;0.45;;;25.90;90.50;;;;;;5029933;28;20026;-86
2021/07/27 06:24:08;;;;;;;0.35;0.35;;;25.90;90.30;;;;;;5029823;28;20029;-86
2021/07/27 06:26:35;;;;;;;0.10;0.10;;;27.40;85.80;;;;;;5029841;28;20464;-86
2021/07/27 06:29:03;;;;;;;0.47;0.47;;;27.50;81.90;;;;;;5028319;28;20409;-86
2021/07/27 06:31:29;;;;;;;0.93;0.60;;;27.00;80.00;;;;;;5030056;28;20018;-86
2021/07/27 06:33:54;;;;;;;0.10;0.10;;;24.90;82.00;;;;;;5028123;28;20068;-85
2021/07/27 06:36:20;;;;;;;0.50;0.50;;;23.40;88.70;;;;;;5031933;28;20394;-85
2021/07/27 06:38:46;;;;;;;1.97;0.53;;;22.50;91.00;;;;;;5033163;28;20064;-86
2021/07/27 06:41:12;;;;;;;0.10;0.10;;;21.50;92.20;;;;;;5033391;28;20264;-86
2021/07/27 06:43:40;;;;;;;0.63;0.52;;;21.10;93.30;;;;;;5033124;28;20041;-86
2021/07/27 06:46:07;;;;;;;6.93;1.48;;;20.30;94.70;;;;;;5033342;28;20037;-85
2021/07/27 06:48:33;;;;;;;20.83;0.88;;;19.80;96.20;;;;;;5033688;28;20025;-85
2021/07/27 06:51:06;;;;;;;2.07;0.37;;;19.40;97.20;;;;;;5033640;28;20379;-85
2021/07/27 06:53:32;;;;;;;0.00;0.00;;;19.00;98.40;;;;;;5031803;28;20026;-86
2021/07/27 06:55:58;;;;;;;0.10;0.10;;;18.60;99.50;;;;;;5032467;28;20175;-86
2021/07/27 06:58:23;;;;;;;1.50;0.57;;;18.70;99.90;;;;;;5032910;28;20029;-85
2021/07/27 07:00:49;;;;;;;3.60;0.37;;;18.70;99.90;;;;;;5032853;28;20041;-85
2021/07/27 07:03:15;;;;;;;0.00;0.00;;;19.40;99.60;;;;;;5032692;28;20025;-85
2021/07/27 07:05:42;;;;;;;0.63;0.43;;;19.60;98.80;;;;;;5032626;28;20083;-85
2021/07/27 07:08:08;;;;;;;0.50;0.50;;;19.70;99.30;;;;;;5032781;28;20025;-85
2021/07/27 07:10:34;;;;;;;0.77;0.70;;;19.40;99.30;;;;;;5047634;28;20032;-85
2021/07/27 07:12:59;;;;;;;0.10;0.10;;;19.10;99.30;;;;;;5052489;28;20267;-85
2021/07/27 07:15:25;;;;;;;0.47;0.47;;;18.70;99.90;;;;;;5052513;28;20048;-85
2021/07/27 07:17:51;;;;;;;0.20;0.20;;;18.50;99.90;;;;;;5052304;28;20056;-85
2021/07/27 07:20:17;;;;;;;1.30;0.23;;;18.40;99.90;;;;;;5052585;28;20079;-85
2021/07/27 07:22:43;;;;;;;0.90;0.55;;;19.30;99.90;;;;;;5051901;28;20090;-85
2021/07/27 07:25:09;;;;;;;0.70;0.70;;;20.60;99.10;;;;;;5050872;28;20108;-85
2021/07/27 07:27:36;;;;;;;0.10;0.10;;;21.00;97.40;;;;;;5052243;28;20033;-85
2021/07/27 07:30:01;;;;;;;0.20;0.20;;;20.70;97.40;;;;;;5051984;28;20028;-85
2021/07/27 07:32:27;;;;;;;0.57;0.43;;;21.20;96.90;;;;;;5052192;28;20021;-85
2021/07/27 07:34:54;;;;;;;0.40;0.35;;;23.00;94.50;;;;;;5067440;28;20098;-85
2021/07/27 07:37:19;;;;;;;0.10;0.10;;;23.00;92.00;;;;;;5072221;28;20056;-85
2021/07/27 07:39:45;;;;;;;0.30;0.30;;;23.40;91.70;;;;;;5072804;28;20063;-85
2021/07/27 07:42:11;;;;;;;0.27;0.27;;;25.20;85.60;;;;;;5070990;28;20275;-85
2021/07/27 07:44:37;;;;;;;0.40;0.20;;;25.50;83.30;;;;;;5072105;28;20032;-85
2021/07/27 07:47:03;;;;;;;1.25;0.65;;;25.70;81.90;;;;;;5071236;28;20287;-85
2021/07/27 07:49:29;;;;;;;4.40;0.75;;;25.90;79.20;;;;;;5071887;28;20128;-86
2021/07/27 07:51:56;;;;;;;0.08;0.08;;;26.90;80.20;;;;;;5071935;28;20020;-86
2021/07/27 07:54:26;;;;;;;0.13;0.13;;;27.10;75.10;;;;;;5071571;28;20032;-86
2021/07/27 07:56:52;;;;;;;1.33;0.28;;;28.00;70.90;;;;;;5071674;28;20048;-85
2021/07/27 07:59:18;;;;;;;;;;;28.30;70.30;;;;;;5071984;28;20021;-85
2021/07/27 08:01:45;;;;;;;;;;;27.80;68.40;;;;;;5071832;28;19957;-86
2021/07/27 08:04:12;;;;;;;0.20;0.20;;;27.80;66.60;;;;;;5069865;28;20414;-85
2021/07/27 08:06:38;;;;;;;0.00;0.00;;;27.60;68.10;;;;;;5071387;28;20052;-86
2021/07/27 08:09:04;;;;;;;2.45;1.38;;;27.40;70.40;;;;;;5071181;28;20104;-86
2021/07/27 08:11:30;;;;;;;;;;;26.70;68.00;;;;;;5070736;28;20594;-85
2021/07/27 08:13:57;;;;;;;;;;;26.10;70.60;;;;;;5071558;28;19930;-86
2021/07/27 08:16:23;;;;;;;0.03;0.03;;;26.40;67.70;;;;;;5071223;28;20551;-86
2021/07/27 08:18:49;;;;;;;0.80;0.40;;;25.80;71.30;;;;;;5071127;28;20035;-86
2021/07/27 08:21:15;;;;;;;0.05;0.05;;;27.40;67.30;;;;;;5069529;28;20125;-86
2021/07/27 08:23:46;;;;;;;0.22;0.22;;;30.30;62.20;;;;;;5071258;28;20504;-86
2021/07/27 08:26:12;;;;;;;0.52;0.52;;;30.70;55.80;;;;;;5070669;28;20412;-86
2021/07/27 08:28:38;;;;;;;;;;;29.60;59.50;;;;;;5071314;28;20492;-86
2021/07/27 08:31:04;;;;;;;0.30;0.30;;;28.60;59.80;;;;;;5070699;28;19915;-86
2021/07/27 08:33:30;;;;;;;0.47;0.47;;;29.00;55.40;;;;;;5062882;28;20026;-85
2021/07/27 08:35:57;;;;;;;0.30;0.28;;;29.30;54.90;;;;;;5030968;28;20405;-85
2021/07/27 08:38:23;;;;;;;0.30;0.25;;;32.30;49.00;;;;;;5030457;28;20021;-86
2021/07/27 08:40:50;;;;;;;0.20;0.10;;;34.20;38.00;;;;;;5030775;28;20026;-86
2021/07/27 08:43:18;;;;;;;0.10;0.10;;;34.90;37.10;;;;;;5030785;28;20029;-86
2021/07/27 08:45:45;;;;;;;0.20;0.20;;;33.30;40.50;;;;;;5030897;28;20025;-86
2021/07/27 08:48:11;;;;;;;0.85;0.57;;;34.00;36.80;;;;;;5030605;28;20041;-86
2021/07/27 08:50:38;;;;;;;0.65;0.20;;;35.60;30.70;;;;;;5030984;28;20394;-86
2021/07/27 08:53:04;;;;;;;0.10;0.10;;;35.70;31.80;;;;;;5029746;28;20033;-87
2021/07/27 08:55:29;;;;;;;1.60;0.82;;;35.90;26.10;;;;;;5029295;28;20512;-86
2021/07/27 08:57:56;;;;;;;0.98;0.28;;;39.00;23.10;;;;;;5030027;28;20087;-86
2021/07/27 09:00:27;;;;;;;1.10;0.30;;;39.80;18.70;;;;;;5030604;28;20034;-86
2021/07/27 09:02:53;;;;;;;0.30;0.30;;;39.40;12.20;;;;;;5030383;28;20092;-86
2021/07/27 09:05:19;;;;;;;;;;;37.70;16.70;;;;;;5031071;28;20125;-86
2021/07/27 09:07:45;;;;;;;0.15;0.13;;;37.60;16.00;;;;;;5030474;28;20007;-86
2021/07/27 09:10:13;;;;;;;0.00;0.00;;;37.90;14.20;;;;;;5029237;28;20462;-86
2021/07/27 09:12:49;;;;;;;0.65;0.40;;;39.60;12.90;;;;;;5030611;28;20512;-86
2021/07/27 09:15:15;;;;;;;0.43;0.43;;;37.40;17.60;;;;;;5030443;28;20071;-86
2021/07/27 09:17:48;;;;;;;;;;;37.60;17.80;;;;;;5030818;28;20104;-86
2021/07/27 09:20:31;;;;;;;1.30;0.88;;;39.30;10.20;;;;;;5030124;28;19905;-86
2021/07/27 09:22:57;;;;;;;0.10;0.10;;;39.80;10.40;;;;;;5030640;28;20025;-86
2021/07/27 09:25:27;;;;;;;0.17;0.10;;;39.80;7.90;;;;;;5028923;28;20070;-86
2021/07/27 09:28:00;;;;;;;0.30;0.30;;;40.90;1.20;;;;;;5030331;28;20596;-86
2021/07/27 09:30:26;;;;;;;0.68;0.35;;;38.00;5.40;;;;;;5030263;28;20497;-86
2021/07/27 09:32:52;;;;;;;;;;;36.90;14.80;;;;;;5030570;28;20021;-86
2021/07/27 09:35:25;;;;;;;0.98;0.65;;;33.20;19.50;;;;;;5028923;28;20495;-86
2021/07/27 09:38:05;;;;;;;0.57;0.20;;;32.00;21.90;;;;;;5030488;28;20014;-86
2021/07/27 09:40:33;;;;;;;0.40;0.40;;;29.20;30.00;;;;;;5030086;28;20029;-86
2021/07/27 09:43:00;;;;;;;0.85;0.45;;;28.30;32.50;;;;;;5030465;28;20048;-86
2021/07/27 09:45:26;;;;;;;2.63;0.63;;;28.20;35.60;;;;;;5030624;28;20490;-86
2021/07/27 09:47:54;;;;;;;0.30;0.30;;;28.40;35.50;;;;;;5029306;28;20044;-86
2021/07/27 09:50:24;;;;;;;1.27;0.20;;;28.50;34.10;;;;;;5030406;28;20026;-86
2021/07/27 09:52:51;;;;;;;0.28;0.28;;;27.90;37.40;;;;;;5030237;28;20009;-86
2021/07/27 09:55:20;;;;;;;0.20;0.20;;;30.40;31.10;;;;;;5030161;28;20032;-86
2021/07/27 09:57:45;;;;;;;0.10;0.10;;;31.20;30.30;;;;;;5030031;28;20502;-86
2021/07/27 10:00:14;;;;;;;0.08;0.08;;;30.70;31.70;;;;;;5030324;28;20053;-86
2021/07/27 10:02:42;;;;;;;0.00;0.00;;;30.20;30.00;;;;;;5030186;28;20029;-86
2021/07/27 10:05:09;;;;;;;0.43;0.38;;;28.70;33.70;;;;;;5030285;28;20477;-86
2021/07/27 10:07:35;;;;;;;0.55;0.55;;;27.60;37.00;;;;;;5029961;28;20018;-86
2021/07/27 10:10:09;;;;;;;0.10;0.10;;;27.00;39.90;;;;;;5030687;28;20029;-86
2021/07/27 10:12:36;;;;;;;0.40;0.40;;;26.10;42.00;;;;;;5033609;28;20057;-86
2021/07/27 10:15:18;;;;;;;0.40;0.30;;;25.80;44.90;;;;;;5033711;28;20480;-86
2021/07/27 10:17:53;;;;;;;0.30;0.30;;;25.50;44.70;;;;;;5033529;28;20143;-86
2021/07/27 10:20:26;;;;;;;0.13;0.13;;;28.20;47.50;;;;;;5033570;28;20040;-86
2021/07/27 10:22:52;;;;;;;2.97;0.35;;;30.80;32.20;;;;;;5033843;28;20028;-86
2021/07/27 10:25:20;;;;;;;0.60;0.38;;;33.20;25.90;;;;;;5033834;28;20038;-86
2021/07/27 10:27:50;;;;;;;0.55;0.38;;;32.20;26.80;;;;;;5033328;28;20025;-86
2021/07/27 10:30:17;;;;;;;0.10;0.10;;;32.40;28.20;;;;;;5033825;28;20052;-86
2021/07/27 10:32:55;;;;;;;3.30;0.77;;;35.20;21.40;;;;;;5033194;28;20041;-86
2021/07/27 10:35:32;;;;;;;0.30;0.30;;;33.80;22.30;;;;;;5052588;28;20025;-86
2021/07/27 10:38:10;;;;;;;0.30;0.30;;;31.90;27.20;;;;;;5053535;28;20057;-86
2021/07/27 10:40:36;;;;;;;0.40;0.32;;;30.40;28.00;;;;;;5051942;28;20036;-86
2021/07/27 10:43:03;;;;;;;0.20;0.20;;;28.70;32.00;;;;;;5053389;28;20025;-86
2021/07/27 10:45:29;;;;;;;0.17;0.17;;;27.20;36.20;;;;;;5053449;28;20037;-86
2021/07/27 10:47:55;;;;;;;;;;;26.20;39.60;;;;;;5053538;28;20500;-86
2021/07/27 10:50:26;;;;;;;0.32;0.32;;;25.80;41.10;;;;;;5053201;28;19905;-86
2021/07/27 10:53:18;;;;;;;0.00;0.00;;;25.50;43.70;;;;;;5052844;28;20110;-86
2021/07/27 10:55:49;;;;;;;0.55;0.52;;;25.00;45.20;;;;;;5052829;28;20048;-86
2021/07/27 10:58:20;;;;;;;0.32;0.25;;;24.40;48.20;;;;;;5053109;28;20036;-86
2021/07/27 11:00:45;;;;;;;0.20;0.20;;;24.00;49.60;;;;;;5052715;28;20535;-86
2021/07/27 11:03:11;;;;;;;0.60;0.38;;;24.40;49.00;;;;;;5052765;28;20037;-86
2021/07/27 11:05:37;;;;;;;2.63;1.25;;;24.50;49.80;;;;;;5052892;28;20037;-86
2021/07/27 11:08:03;;;;;;;0.00;0.00;;;24.60;48.90;;;;;;5052897;28;20154;-86
2021/07/27 11:10:30;;;;;;;0.30;0.30;;;24.60;49.70;;;;;;5051411;28;20036;-86
2021/07/27 11:12:58;;;;;;;0.70;0.40;;;24.80;50.70;;;;;;5052737;28;20020;-86
2021/07/27 11:15:28;;;;;;;0.15;0.15;;;25.20;49.00;;;;;;5052719;28;20485;-86
2021/07/27 11:18:01;;;;;;;0.10;0.10;;;26.40;58.50;;;;;;5052323;28;20032;-86
2021/07/27 11:20:30;;;;;;;0.45;0.45;;;27.30;45.00;;;;;;5052385;28;20112;-86
2021/07/27 11:22:58;;;;;;;0.73;0.73;;;27.90;41.80;;;;;;5051878;28;20024;-86
2021/07/27 11:25:25;;;;;;;0.40;0.40;;;28.20;40.20;;;;;;5052660;28;20028;-86
2021/07/27 11:27:52;;;;;;;0.20;0.10;;;28.00;41.30;;;;;;5052432;28;20889;-86
2021/07/27 11:30:18;;;;;;;;;;;27.60;41.50;;;;;;5051705;28;20025;-86
2021/07/27 11:32:51;;;;;;;0.38;0.38;;;28.20;40.00;;;;;;5051253;28;19992;-86
2021/07/27 11:35:22;;;;;;;1.85;0.30;;;27.90;40.00;;;;;;5058355;28;20493;-86
2021/07/27 11:38:01;;;;;;;3.50;0.43;;;28.00;39.90;;;;;;5052350;28;20095;-86
2021/07/27 11:40:28;;;;;;;1.80;0.32;;;28.10;38.90;;;;;;5052104;28;20020;-86
2021/07/27 11:43:06;;;;;;;0.30;0.30;;;28.10;39.50;;;;;;5051896;28;20021;-86
2021/07/27 11:45:34;;;;;;;0.03;0.03;;;28.50;37.80;;;;;;5051894;28;20033;-86
2021/07/27 11:48:00;;;;;;;1.92;0.63;;;27.70;39.10;;;;;;5051831;28;20021;-86
2021/07/27 11:50:27;;;;;;;0.10;0.10;;;26.90;41.70;;;;;;5050798;28;20032;-86
2021/07/27 11:52:58;;;;;;;0.38;0.20;;;26.20;43.40;;;;;;5050576;28;20021;-86
2021/07/27 11:55:35;;;;;;;0.17;0.17;;;26.70;42.50;;;;;;5050560;28;20558;-86
2021/07/27 11:58:01;;;;;;;0.20;0.13;;;27.50;41.10;;;;;;5051768;28;20083;-86
2021/07/27 12:00:28;;;;;;;0.32;0.32;;;27.70;39.20;;;;;;5051845;28;20028;-86
2021/07/27 12:02:54;;;;;;;0.52;0.52;;;26.80;43.20;;;;;;5051860;28;20037;-86
2021/07/27 12:05:20;;;;;;;0.70;0.10;;;26.70;42.80;;;;;;5051810;28;20543;-86
2021/07/27 12:07:46;;;;;;;0.05;0.05;;;26.90;43.30;;;;;;5050220;28;20032;-86
2021/07/27 12:10:13;;;;;;;0.10;0.10;;;27.40;41.80;;;;;;5051731;28;20582;-86
2021/07/27 12:12:39;;;;;;;0.47;0.47;;;27.60;40.90;;;;;;5051663;28;20029;-86
2021/07/27 12:15:08;;;;;;;0.10;0.10;;;26.90;42.60;;;;;;5051349;28;20409;-86
2021/07/27 12:17:34;;;;;;;0.45;0.43;;;26.40;43.50;;;;;;5051392;28;20493;-86
2021/07/27 12:20:00;;;;;;;0.30;0.30;;;26.20;44.80;;;;;;5051296;28;20021;-86
2021/07/27 12:22:26;;;;;;;0.28;0.10;;;26.10;45.30;;;;;;5051154;28;20112;-86
2021/07/27 12:24:52;;;;;;;0.10;0.10;;;25.70;46.80;;;;;;5051536;28;20028;-86
2021/07/27 12:27:17;;;;;;;2.30;0.25;;;25.80;46.20;;;;;;5049587;28;20393;-86
2021/07/27 12:29:43;;;;;;;0.43;0.43;;;25.90;59.10;;;;;;5031281;28;20640;-86
2021/07/27 12:32:09;;;;;;;1.55;0.82;;;25.80;46.20;;;;;;5031228;28;20021;-86
2021/07/27 12:34:35;;;;;;;0.22;0.20;;;26.20;46.30;;;;;;5041964;28;20029;-86
2021/07/27 12:37:01;;;;;;;0.30;0.30;;;26.00;58.40;;;;;;5051269;28;20025;-86
2021/07/27 12:39:26;;;;;;;0.40;0.40;;;25.40;48.40;;;;;;5049495;28;20032;-86
2021/07/27 12:41:53;;;;;;;0.73;0.25;;;26.10;47.30;;;;;;5050904;28;20033;-86
2021/07/27 12:44:20;;;;;;;0.10;0.10;;;26.50;46.40;;;;;;5050874;28;20504;-86
2021/07/27 12:46:46;;;;;;;0.22;0.17;;;26.60;45.80;;;;;;5050944;28;20029;-86
2021/07/27 12:49:14;;;;;;;0.63;0.22;;;26.80;45.30;;;;;;5049297;28;20672;-86
2021/07/27 12:51:44;;;;;;;1.55;0.40;;;26.60;47.70;;;;;;5050662;28;20481;-87
2021/07/27 12:54:10;;;;;;;1.00;0.50;;;26.70;47.00;;;;;;5050669;28;20107;-86
2021/07/27 12:56:38;;;;;;;0.15;0.15;;;27.20;45.00;;;;;;5049456;28;20442;-86
2021/07/27 12:59:05;;;;;;;1.90;0.70;;;26.70;47.80;;;;;;5050456;28;20067;-86
2021/07/27 13:01:32;;;;;;;0.50;0.50;;;27.20;46.70;;;;;;5050196;28;20441;-86
2021/07/27 13:03:58;;;;;;;0.10;0.10;;;27.00;45.90;;;;;;5050910;28;20025;-86
2021/07/27 13:06:24;;;;;;;0.45;0.20;;;27.10;46.10;;;;;;5050638;28;20556;-86
2021/07/27 13:08:50;;;;;;;0.30;0.30;;;27.80;44.20;;;;;;5050187;28;20021;-86
2021/07/27 13:11:16;;;;;;;0.40;0.40;;;28.00;44.00;;;;;;5050812;28;20029;-86
2021/07/27 13:13:41;;;;;;;0.75;0.40;;;27.80;43.50;;;;;;5049697;28;20021;-86
2021/07/27 13:16:07;;;;;;;0.32;0.32;;;26.90;46.20;;;;;;5050967;28;20396;-86